PWSweather.com
Personal Weather Stations
Station Observations
KMICHEBO10
Cordwood Point, Lake Huron, Cheboygan, MI 49721

Cordwood Point, Lake HuronCheboygan, MI 49721

Lat: 45.663372, Lon: -84.3327789

Elevation: 584

Station Type: Davis Vantage Pro2 Wireless

http://www.lakehuronweather.org

High Low Average
Temperature 24.4°F-4.2°C 13.7°F-10.2°C 18.8°F-7.3°C
Dew Point 19.7°F-6.8°C 7.2°F-13.8°C 13.3°F-10.4°C
Winds 10.4 mph 16.7 kmh Calm Calm 4.0 mph SE6.4 kmh SE
Wind Gusts 21.9 mph35.2 kmh 1.2 mph1.9 kmh 7.0 mph11.3 kmh
Humidity 91% 64% 79%
Pressure 30.44 in1030.8 mb 30.31 in1026.4 mb -
Precipitation 0.00 in0.0 mm - -
Hour Temp Dew Point Humidity Winds Wind Gusts Pressure Precip Precip Rate Daily Precip Total
12:00 AM 14.3°F-9.8°C 7.8°F-13.4°C 75% 3.5 mph SSE5.6 kmh SSE 5.8 mph9.3 kmh 30.44 in1030.8 mb - 0.00 in0.0 mm 0.00 in0.0 mm
12:10 AM 14.1°F-9.9°C 7.6°F-13.6°C 75% 1.2 mph ESE1.9 kmh ESE 2.3 mph3.7 kmh 30.44 in1030.8 mb - 0.00 in0.0 mm 0.00 in0.0 mm
12:20 AM 14.1°F-9.9°C 7.6°F-13.6°C 75% 4.6 mph S7.4 kmh S 6.9 mph11.1 kmh 30.44 in1030.8 mb - 0.00 in0.0 mm 0.00 in0.0 mm
12:30 AM 14.0°F-10.0°C 7.5°F-13.6°C 75% 2.3 mph S3.7 kmh S 5.8 mph9.3 kmh 30.44 in1030.8 mb - 0.00 in0.0 mm 0.00 in0.0 mm
12:40 AM 13.9°F-10.1°C 7.4°F-13.7°C 75% Calm Calm 1.2 mph1.9 kmh 30.44 in1030.8 mb - 0.00 in0.0 mm 0.00 in0.0 mm
12:50 AM 13.7°F-10.2°C 7.3°F-13.7°C 75% 1.2 mph ESE1.9 kmh ESE 4.6 mph7.4 kmh 30.44 in1030.8 mb - 0.00 in0.0 mm 0.00 in0.0 mm
01:00 AM 13.7°F-10.2°C 7.2°F-13.8°C 75% 1.2 mph SE1.9 kmh SE 2.3 mph3.7 kmh 30.44 in1030.8 mb - 0.00 in0.0 mm 0.00 in0.0 mm
01:10 AM 13.8°F-10.1°C 7.3°F-13.7°C 75% 1.2 mph SE1.9 kmh SE 4.6 mph7.4 kmh 30.44 in1030.8 mb - 0.00 in0.0 mm 0.00 in0.0 mm
01:20 AM 13.9°F-10.1°C 7.4°F-13.7°C 75% 3.5 mph SE5.6 kmh SE 8.1 mph13.0 kmh 30.43 in1030.5 mb - 0.00 in0.0 mm 0.00 in0.0 mm
01:30 AM 14.0°F-10.0°C 7.5°F-13.6°C 75% 1.2 mph S1.9 kmh S 4.6 mph7.4 kmh 30.44 in1030.8 mb - 0.00 in0.0 mm 0.00 in0.0 mm
01:40 AM 14.2°F-9.9°C 7.7°F-13.5°C 75% 1.2 mph SSE1.9 kmh SSE 3.5 mph5.6 kmh 30.43 in1030.5 mb - 0.00 in0.0 mm 0.00 in0.0 mm
01:50 AM 14.3°F-9.8°C 7.8°F-13.4°C 75% 2.3 mph SSE3.7 kmh SSE 4.6 mph7.4 kmh 30.43 in1030.5 mb - 0.00 in0.0 mm 0.00 in0.0 mm
02:00 AM 14.5°F-9.7°C 8.0°F-13.3°C 75% 1.2 mph SE1.9 kmh SE 3.5 mph5.6 kmh 30.43 in1030.5 mb - 0.00 in0.0 mm 0.00 in0.0 mm
02:10 AM 14.6°F-9.7°C 8.1°F-13.3°C 75% 1.2 mph SE1.9 kmh SE 2.3 mph3.7 kmh 30.42 in1030.1 mb - 0.00 in0.0 mm 0.00 in0.0 mm
02:20 AM 14.7°F-9.6°C 7.9°F-13.4°C 74% Calm Calm 2.3 mph3.7 kmh 30.42 in1030.1 mb - 0.00 in0.0 mm 0.00 in0.0 mm
02:30 AM 14.8°F-9.6°C 8.3°F-13.2°C 75% 2.3 mph S3.7 kmh S 3.5 mph5.6 kmh 30.42 in1030.1 mb - 0.00 in0.0 mm 0.00 in0.0 mm
02:40 AM 14.9°F-9.5°C 8.4°F-13.1°C 75% 1.2 mph S1.9 kmh S 1.2 mph1.9 kmh 30.42 in1030.1 mb - 0.00 in0.0 mm 0.00 in0.0 mm
02:50 AM 15.0°F-9.4°C 8.5°F-13.1°C 75% 2.3 mph SSE3.7 kmh SSE 6.9 mph11.1 kmh 30.41 in1029.8 mb - 0.00 in0.0 mm 0.00 in0.0 mm
03:00 AM 15.1°F-9.4°C 8.3°F-13.2°C 74% 2.3 mph SSE3.7 kmh SSE 4.6 mph7.4 kmh 30.41 in1029.8 mb - 0.00 in0.0 mm 0.00 in0.0 mm
03:10 AM 15.2°F-9.3°C 8.7°F-12.9°C 75% 1.2 mph SSE1.9 kmh SSE 3.5 mph5.6 kmh 30.41 in1029.8 mb - 0.00 in0.0 mm 0.00 in0.0 mm
03:20 AM 15.3°F-9.3°C 8.5°F-13.1°C 74% 2.3 mph S3.7 kmh S 5.8 mph9.3 kmh 30.41 in1029.8 mb - 0.00 in0.0 mm 0.00 in0.0 mm
03:30 AM 15.4°F-9.2°C 8.6°F-13.0°C 74% 1.2 mph SE1.9 kmh SE 5.8 mph9.3 kmh 30.41 in1029.8 mb - 0.00 in0.0 mm 0.00 in0.0 mm
03:40 AM 15.5°F-9.2°C 8.7°F-12.9°C 74% 2.3 mph SE3.7 kmh SE 4.6 mph7.4 kmh 30.41 in1029.8 mb - 0.00 in0.0 mm 0.00 in0.0 mm
03:50 AM 15.7°F-9.1°C 8.9°F-12.8°C 74% 1.2 mph SSE1.9 kmh SSE 6.9 mph11.1 kmh 30.41 in1029.8 mb - 0.00 in0.0 mm 0.00 in0.0 mm
04:00 AM 15.8°F-9.0°C 9.0°F-12.8°C 74% 2.3 mph SSE3.7 kmh SSE 3.5 mph5.6 kmh 30.41 in1029.8 mb - 0.00 in0.0 mm 0.00 in0.0 mm
04:10 AM 15.9°F-8.9°C 9.0°F-12.8°C 74% 3.5 mph SE5.6 kmh SE 4.6 mph7.4 kmh 30.41 in1029.8 mb - 0.00 in0.0 mm 0.00 in0.0 mm
04:20 AM 15.9°F-8.9°C 9.1°F-12.7°C 74% 3.5 mph S5.6 kmh S 4.6 mph7.4 kmh 30.41 in1029.8 mb - 0.00 in0.0 mm 0.00 in0.0 mm
04:30 AM 16.0°F-8.9°C 8.9°F-12.8°C 73% 2.3 mph SE3.7 kmh SE 2.3 mph3.7 kmh 30.41 in1029.8 mb - 0.00 in0.0 mm 0.00 in0.0 mm
04:40 AM 16.0°F-8.9°C 9.2°F-12.7°C 74% 2.3 mph S3.7 kmh S 8.1 mph13.0 kmh 30.41 in1029.8 mb - 0.00 in0.0 mm 0.00 in0.0 mm
04:50 AM 16.0°F-8.9°C 9.2°F-12.7°C 74% 1.2 mph SSE1.9 kmh SSE 3.5 mph5.6 kmh 30.41 in1029.8 mb - 0.00 in0.0 mm 0.00 in0.0 mm
05:00 AM 16.0°F-8.9°C 9.8°F-12.3°C 76% 2.3 mph SE3.7 kmh SE 5.8 mph9.3 kmh 30.41 in1029.8 mb - 0.00 in0.0 mm 0.00 in0.0 mm
05:10 AM 15.9°F-8.9°C 10.0°F-12.2°C 77% 2.3 mph S3.7 kmh S 5.8 mph9.3 kmh 30.41 in1029.8 mb - 0.00 in0.0 mm 0.00 in0.0 mm
05:20 AM 15.9°F-8.9°C 10.0°F-12.2°C 77% 1.2 mph SSE1.9 kmh SSE 2.3 mph3.7 kmh 30.41 in1029.8 mb - 0.00 in0.0 mm 0.00 in0.0 mm
05:30 AM 16.0°F-8.9°C 9.8°F-12.3°C 76% 2.3 mph SE3.7 kmh SE 5.8 mph9.3 kmh 30.40 in1029.5 mb - 0.00 in0.0 mm 0.00 in0.0 mm
05:40 AM 16.1°F-8.8°C 9.9°F-12.3°C 76% 2.3 mph ESE3.7 kmh ESE 4.6 mph7.4 kmh 30.40 in1029.5 mb - 0.00 in0.0 mm 0.00 in0.0 mm
05:50 AM 16.1°F-8.8°C 10.2°F-12.1°C 77% 2.3 mph SE3.7 kmh SE 4.6 mph7.4 kmh 30.40 in1029.5 mb - 0.00 in0.0 mm 0.00 in0.0 mm
06:00 AM 16.1°F-8.8°C 10.2°F-12.1°C 77% 3.5 mph ESE5.6 kmh ESE 6.9 mph11.1 kmh 30.40 in1029.5 mb - 0.00 in0.0 mm 0.00 in0.0 mm
06:10 AM 16.1°F-8.8°C 10.2°F-12.1°C 77% 3.5 mph ESE5.6 kmh ESE 5.8 mph9.3 kmh 30.39 in1029.1 mb - 0.00 in0.0 mm 0.00 in0.0 mm
06:20 AM 16.2°F-8.8°C 9.7°F-12.4°C 75% 3.5 mph SE5.6 kmh SE 5.8 mph9.3 kmh 30.39 in1029.1 mb - 0.00 in0.0 mm 0.00 in0.0 mm
06:30 AM 16.2°F-8.8°C 9.7°F-12.4°C 75% 1.2 mph SSE1.9 kmh SSE 3.5 mph5.6 kmh 30.39 in1029.1 mb - 0.00 in0.0 mm 0.00 in0.0 mm
06:40 AM 16.2°F-8.8°C 9.7°F-12.4°C 75% 2.3 mph SE3.7 kmh SE 3.5 mph5.6 kmh 30.39 in1029.1 mb - 0.00 in0.0 mm 0.00 in0.0 mm
06:50 AM 16.2°F-8.8°C 9.7°F-12.4°C 75% 1.2 mph SE1.9 kmh SE 2.3 mph3.7 kmh 30.39 in1029.1 mb - 0.00 in0.0 mm 0.00 in0.0 mm
07:00 AM 16.1°F-8.8°C 9.6°F-12.4°C 75% 1.2 mph ESE1.9 kmh ESE 4.6 mph7.4 kmh 30.39 in1029.1 mb - 0.00 in0.0 mm 0.00 in0.0 mm
07:10 AM 16.1°F-8.8°C 9.3°F-12.6°C 74% 2.3 mph SE3.7 kmh SE 2.3 mph3.7 kmh 30.39 in1029.1 mb - 0.00 in0.0 mm 0.00 in0.0 mm
07:20 AM 16.1°F-8.8°C 9.5°F-12.5°C 75% 1.2 mph S1.9 kmh S 2.3 mph3.7 kmh 30.39 in1029.1 mb - 0.00 in0.0 mm 0.00 in0.0 mm
07:30 AM 16.0°F-8.9°C 9.5°F-12.5°C 75% 1.2 mph S1.9 kmh S 1.2 mph1.9 kmh 30.39 in1029.1 mb - 0.00 in0.0 mm 0.00 in0.0 mm
07:40 AM 16.0°F-8.9°C 9.5°F-12.5°C 75% 3.5 mph SE5.6 kmh SE 4.6 mph7.4 kmh 30.39 in1029.1 mb - 0.00 in0.0 mm 0.00 in0.0 mm
07:50 AM 16.1°F-8.8°C 9.6°F-12.4°C 75% 2.3 mph SE3.7 kmh SE 3.5 mph5.6 kmh 30.39 in1029.1 mb - 0.00 in0.0 mm 0.00 in0.0 mm
08:00 AM 16.1°F-8.8°C 9.6°F-12.4°C 75% 2.3 mph SE3.7 kmh SE 6.9 mph11.1 kmh 30.39 in1029.1 mb - 0.00 in0.0 mm 0.00 in0.0 mm
08:10 AM 16.2°F-8.8°C 9.6°F-12.4°C 75% 1.2 mph ESE1.9 kmh ESE 2.3 mph3.7 kmh 30.39 in1029.1 mb - 0.00 in0.0 mm 0.00 in0.0 mm
08:20 AM 16.2°F-8.8°C 10.0°F-12.2°C 76% 1.2 mph S1.9 kmh S 2.3 mph3.7 kmh 30.39 in1029.1 mb - 0.00 in0.0 mm 0.00 in0.0 mm
08:30 AM 16.2°F-8.8°C 9.4°F-12.6°C 74% 4.6 mph SE7.4 kmh SE 5.8 mph9.3 kmh 30.39 in1029.1 mb - 0.00 in0.0 mm 0.00 in0.0 mm
08:40 AM 16.3°F-8.7°C 10.1°F-12.2°C 76% 2.3 mph SSE3.7 kmh SSE 2.3 mph3.7 kmh 30.39 in1029.1 mb - 0.00 in0.0 mm 0.00 in0.0 mm
08:50 AM 16.3°F-8.7°C 10.1°F-12.2°C 76% 3.5 mph SSE5.6 kmh SSE 4.6 mph7.4 kmh 30.39 in1029.1 mb - 0.00 in0.0 mm 0.00 in0.0 mm
09:00 AM 16.2°F-8.8°C 10.3°F-12.1°C 77% 3.5 mph SE5.6 kmh SE 6.9 mph11.1 kmh 30.39 in1029.1 mb - 0.00 in0.0 mm 0.00 in0.0 mm
09:10 AM 16.1°F-8.8°C 10.5°F-11.9°C 78% 2.3 mph SE3.7 kmh SE 4.6 mph7.4 kmh 30.39 in1029.1 mb - 0.00 in0.0 mm 0.00 in0.0 mm
09:20 AM 16.1°F-8.8°C 10.7°F-11.8°C 79% 1.2 mph ESE1.9 kmh ESE 1.2 mph1.9 kmh 30.39 in1029.1 mb - 0.00 in0.0 mm 0.00 in0.0 mm
09:30 AM 16.0°F-8.9°C 11.2°F-11.6°C 81% 1.2 mph SE1.9 kmh SE 3.5 mph5.6 kmh 30.38 in1028.8 mb - 0.00 in0.0 mm 0.00 in0.0 mm
09:40 AM 16.0°F-8.9°C 11.2°F-11.6°C 81% 3.5 mph SE5.6 kmh SE 5.8 mph9.3 kmh 30.39 in1029.1 mb - 0.00 in0.0 mm 0.00 in0.0 mm
09:50 AM 16.0°F-8.9°C 11.5°F-11.4°C 82% Calm Calm 2.3 mph3.7 kmh 30.39 in1029.1 mb - 0.00 in0.0 mm 0.00 in0.0 mm
10:00 AM 16.0°F-8.9°C 11.5°F-11.4°C 82% 1.2 mph SE1.9 kmh SE 2.3 mph3.7 kmh 30.39 in1029.1 mb - 0.00 in0.0 mm 0.00 in0.0 mm
10:10 AM 16.1°F-8.8°C 11.6°F-11.3°C 82% 2.3 mph SE3.7 kmh SE 5.8 mph9.3 kmh 30.39 in1029.1 mb - 0.00 in0.0 mm 0.00 in0.0 mm
10:20 AM 16.3°F-8.7°C 11.5°F-11.4°C 81% 1.2 mph S1.9 kmh S 2.3 mph3.7 kmh 30.39 in1029.1 mb - 0.00 in0.0 mm 0.00 in0.0 mm
10:30 AM 16.5°F-8.6°C 11.7°F-11.3°C 81% 2.3 mph S3.7 kmh S 2.3 mph3.7 kmh 30.39 in1029.1 mb - 0.00 in0.0 mm 0.00 in0.0 mm
10:40 AM 16.7°F-8.5°C 11.6°F-11.3°C 80% 3.5 mph SSE5.6 kmh SSE 3.5 mph5.6 kmh 30.39 in1029.1 mb - 0.00 in0.0 mm 0.00 in0.0 mm
10:50 AM 17.0°F-8.3°C 11.6°F-11.3°C 79% 2.3 mph SE3.7 kmh SE 4.6 mph7.4 kmh 30.39 in1029.1 mb - 0.00 in0.0 mm 0.00 in0.0 mm
11:00 AM 17.2°F-8.2°C 11.5°F-11.4°C 78% 2.3 mph SE3.7 kmh SE 3.5 mph5.6 kmh 30.39 in1029.1 mb - 0.00 in0.0 mm 0.00 in0.0 mm
11:10 AM 17.5°F-8.1°C 11.8°F-11.2°C 78% 2.3 mph SE3.7 kmh SE 6.9 mph11.1 kmh 30.39 in1029.1 mb - 0.00 in0.0 mm 0.00 in0.0 mm
11:20 AM 17.7°F-7.9°C 12.0°F-11.1°C 78% 1.2 mph SSE1.9 kmh SSE 3.5 mph5.6 kmh 30.39 in1029.1 mb - 0.00 in0.0 mm 0.00 in0.0 mm
11:30 AM 18.0°F-7.8°C 12.0°F-11.1°C 77% 1.2 mph SE1.9 kmh SE 3.5 mph5.6 kmh 30.39 in1029.1 mb - 0.00 in0.0 mm 0.00 in0.0 mm
11:40 AM 18.3°F-7.6°C 12.0°F-11.1°C 76% 3.5 mph SE5.6 kmh SE 3.5 mph5.6 kmh 30.39 in1029.1 mb - 0.00 in0.0 mm 0.00 in0.0 mm
11:50 AM 18.5°F-7.5°C 12.2°F-11.0°C 76% 2.3 mph S3.7 kmh S 3.5 mph5.6 kmh 30.39 in1029.1 mb - 0.00 in0.0 mm 0.00 in0.0 mm
12:00 PM 18.8°F-7.3°C 12.5°F-10.8°C 76% 5.8 mph SSE9.3 kmh SSE 8.1 mph13.0 kmh 30.39 in1029.1 mb - 0.00 in0.0 mm 0.00 in0.0 mm
12:10 PM 19.2°F-7.1°C 13.1°F-10.5°C 77% Calm Calm 1.2 mph1.9 kmh 30.39 in1029.1 mb - 0.00 in0.0 mm 0.00 in0.0 mm
12:20 PM 19.4°F-7.0°C 13.4°F-10.3°C 77% 3.5 mph SE5.6 kmh SE 3.5 mph5.6 kmh 30.39 in1029.1 mb - 0.00 in0.0 mm 0.00 in0.0 mm
12:30 PM 19.6°F-6.9°C 13.3°F-10.4°C 76% 1.2 mph S1.9 kmh S 2.3 mph3.7 kmh 30.39 in1029.1 mb - 0.00 in0.0 mm 0.00 in0.0 mm
12:40 PM 19.9°F-6.7°C 13.6°F-10.2°C 76% 2.3 mph SE3.7 kmh SE 3.5 mph5.6 kmh 30.39 in1029.1 mb - 0.00 in0.0 mm 0.00 in0.0 mm
12:50 PM 20.2°F-6.6°C 13.5°F-10.3°C 75% 2.3 mph E3.7 kmh E 3.5 mph5.6 kmh 30.38 in1028.8 mb - 0.00 in0.0 mm 0.00 in0.0 mm
01:00 PM 20.3°F-6.5°C 13.6°F-10.2°C 75% 2.3 mph SSE3.7 kmh SSE 5.8 mph9.3 kmh 30.38 in1028.8 mb - 0.00 in0.0 mm 0.00 in0.0 mm
01:10 PM 20.6°F-6.3°C 14.5°F-9.7°C 77% 3.5 mph E5.6 kmh E 6.9 mph11.1 kmh 30.37 in1028.4 mb - 0.00 in0.0 mm 0.00 in0.0 mm
01:20 PM 20.8°F-6.2°C 14.7°F-9.6°C 77% 2.3 mph SE3.7 kmh SE 3.5 mph5.6 kmh 30.37 in1028.4 mb - 0.00 in0.0 mm 0.00 in0.0 mm
01:30 PM 21.1°F-6.1°C 15.3°F-9.3°C 78% 1.2 mph E1.9 kmh E 3.5 mph5.6 kmh 30.36 in1028.1 mb - 0.00 in0.0 mm 0.00 in0.0 mm
01:40 PM 21.5°F-5.8°C 15.4°F-9.2°C 77% 4.6 mph ESE7.4 kmh ESE 6.9 mph11.1 kmh 30.36 in1028.1 mb - 0.00 in0.0 mm 0.00 in0.0 mm
01:50 PM 21.5°F-5.8°C 15.4°F-9.2°C 77% 1.2 mph SE1.9 kmh SE 4.6 mph7.4 kmh 30.36 in1028.1 mb - 0.00 in0.0 mm 0.00 in0.0 mm
02:00 PM 21.8°F-5.7°C 15.7°F-9.1°C 77% 1.2 mph SE1.9 kmh SE 2.3 mph3.7 kmh 30.35 in1027.8 mb - 0.00 in0.0 mm 0.00 in0.0 mm
02:10 PM 22.0°F-5.6°C 15.6°F-9.1°C 76% 1.2 mph SE1.9 kmh SE 3.5 mph5.6 kmh 30.34 in1027.4 mb - 0.00 in0.0 mm 0.00 in0.0 mm
02:20 PM 22.0°F-5.6°C 15.6°F-9.1°C 76% 5.8 mph ESE9.3 kmh ESE 11.5 mph18.5 kmh 30.34 in1027.4 mb - 0.00 in0.0 mm 0.00 in0.0 mm
02:30 PM 22.4°F-5.3°C 15.7°F-9.1°C 75% Calm Calm 1.2 mph1.9 kmh 30.33 in1027.1 mb - 0.00 in0.0 mm 0.00 in0.0 mm
02:40 PM 22.8°F-5.1°C 15.8°F-9.0°C 74% 2.3 mph SSE3.7 kmh SSE 4.6 mph7.4 kmh 30.33 in1027.1 mb - 0.00 in0.0 mm 0.00 in0.0 mm
02:50 PM 23.1°F-4.9°C 15.7°F-9.1°C 73% 3.5 mph SE5.6 kmh SE 4.6 mph7.4 kmh 30.33 in1027.1 mb - 0.00 in0.0 mm 0.00 in0.0 mm
03:00 PM 23.5°F-4.7°C 16.4°F-8.7°C 74% 3.5 mph SE5.6 kmh SE 3.5 mph5.6 kmh 30.32 in1026.8 mb - 0.00 in0.0 mm 0.00 in0.0 mm
03:10 PM 24.0°F-4.4°C 15.6°F-9.1°C 70% 4.6 mph E7.4 kmh E 5.8 mph9.3 kmh 30.32 in1026.8 mb - 0.00 in0.0 mm 0.00 in0.0 mm
03:20 PM 24.1°F-4.4°C 14.7°F-9.6°C 67% 3.5 mph SE5.6 kmh SE 3.5 mph5.6 kmh 30.32 in1026.8 mb - 0.00 in0.0 mm 0.00 in0.0 mm
03:30 PM 24.1°F-4.4°C 14.4°F-9.8°C 66% 3.5 mph ESE5.6 kmh ESE 5.8 mph9.3 kmh 30.32 in1026.8 mb - 0.00 in0.0 mm 0.00 in0.0 mm
03:40 PM 24.4°F-4.2°C 14.0°F-10.0°C 64% 3.5 mph SE5.6 kmh SE 5.8 mph9.3 kmh 30.31 in1026.4 mb - 0.00 in0.0 mm 0.00 in0.0 mm
03:50 PM 24.4°F-4.2°C 14.0°F-10.0°C 64% 1.2 mph S1.9 kmh S 2.3 mph3.7 kmh 30.31 in1026.4 mb - 0.00 in0.0 mm 0.00 in0.0 mm
04:00 PM 24.3°F-4.3°C 13.9°F-10.1°C 64% 3.5 mph SSE5.6 kmh SSE 9.2 mph14.8 kmh 30.31 in1026.4 mb - 0.00 in0.0 mm 0.00 in0.0 mm
04:10 PM 24.4°F-4.2°C 14.3°F-9.8°C 65% 4.6 mph SSE7.4 kmh SSE 5.8 mph9.3 kmh 30.31 in1026.4 mb - 0.00 in0.0 mm 0.00 in0.0 mm
04:20 PM 24.2°F-4.3°C 14.8°F-9.6°C 67% 2.3 mph SSE3.7 kmh SSE 3.5 mph5.6 kmh 30.31 in1026.4 mb - 0.00 in0.0 mm 0.00 in0.0 mm
04:30 PM 23.9°F-4.5°C 14.9°F-9.5°C 68% 4.6 mph ESE7.4 kmh ESE 5.8 mph9.3 kmh 30.32 in1026.8 mb - 0.00 in0.0 mm 0.00 in0.0 mm
04:40 PM 23.6°F-4.7°C 15.6°F-9.1°C 71% 3.5 mph SSE5.6 kmh SSE 4.6 mph7.4 kmh 30.32 in1026.8 mb - 0.00 in0.0 mm 0.00 in0.0 mm
04:50 PM 23.3°F-4.8°C 15.9°F-8.9°C 73% 2.3 mph E3.7 kmh E 5.8 mph9.3 kmh 30.32 in1026.8 mb - 0.00 in0.0 mm 0.00 in0.0 mm
05:00 PM 22.9°F-5.1°C 15.9°F-8.9°C 74% 4.6 mph SE7.4 kmh SE 5.8 mph9.3 kmh 30.33 in1027.1 mb - 0.00 in0.0 mm 0.00 in0.0 mm
05:10 PM 22.7°F-5.2°C 16.6°F-8.6°C 77% 3.5 mph SE5.6 kmh SE 5.8 mph9.3 kmh 30.33 in1027.1 mb - 0.00 in0.0 mm 0.00 in0.0 mm
05:20 PM 22.5°F-5.3°C 17.3°F-8.2°C 80% 1.2 mph ENE1.9 kmh ENE 2.3 mph3.7 kmh 30.33 in1027.1 mb - 0.00 in0.0 mm 0.00 in0.0 mm
05:30 PM 22.5°F-5.3°C 17.5°F-8.1°C 81% 1.2 mph SSE1.9 kmh SSE 1.2 mph1.9 kmh 30.33 in1027.1 mb - 0.00 in0.0 mm 0.00 in0.0 mm
05:40 PM 22.4°F-5.3°C 17.2°F-8.2°C 80% 1.2 mph ESE1.9 kmh ESE 3.5 mph5.6 kmh 30.33 in1027.1 mb - 0.00 in0.0 mm 0.00 in0.0 mm
05:50 PM 22.1°F-5.5°C 17.7°F-7.9°C 83% 1.2 mph S1.9 kmh S 1.2 mph1.9 kmh 30.33 in1027.1 mb - 0.00 in0.0 mm 0.00 in0.0 mm
06:00 PM 21.6°F-5.8°C 18.1°F-7.7°C 86% 1.2 mph E1.9 kmh E 3.5 mph5.6 kmh 30.33 in1027.1 mb - 0.00 in0.0 mm 0.00 in0.0 mm
06:10 PM 21.2°F-6.0°C 18.2°F-7.7°C 88% 2.3 mph SE3.7 kmh SE 4.6 mph7.4 kmh 30.34 in1027.4 mb - 0.00 in0.0 mm 0.00 in0.0 mm
06:20 PM 21.1°F-6.1°C 18.6°F-7.4°C 90% 6.9 mph E11.1 kmh E 11.5 mph18.5 kmh 30.34 in1027.4 mb - 0.00 in0.0 mm 0.00 in0.0 mm
06:30 PM 21.6°F-5.8°C 19.4°F-7.0°C 91% 5.8 mph E9.3 kmh E 10.4 mph16.7 kmh 30.33 in1027.1 mb - 0.00 in0.0 mm 0.00 in0.0 mm
06:40 PM 21.9°F-5.6°C 19.7°F-6.8°C 91% 6.9 mph ENE11.1 kmh ENE 19.6 mph31.5 kmh 30.33 in1027.1 mb - 0.00 in0.0 mm 0.00 in0.0 mm
06:50 PM 21.9°F-5.6°C 19.4°F-7.0°C 90% 8.1 mph E13.0 kmh E 18.4 mph29.6 kmh 30.34 in1027.4 mb - 0.00 in0.0 mm 0.00 in0.0 mm
07:00 PM 21.9°F-5.6°C 19.2°F-7.1°C 89% 8.1 mph E13.0 kmh E 21.9 mph35.2 kmh 30.34 in1027.4 mb - 0.00 in0.0 mm 0.00 in0.0 mm
07:10 PM 21.7°F-5.7°C 18.7°F-7.4°C 88% 8.1 mph ENE13.0 kmh ENE 18.4 mph29.6 kmh 30.34 in1027.4 mb - 0.00 in0.0 mm 0.00 in0.0 mm
07:20 PM 21.8°F-5.7°C 18.8°F-7.3°C 88% 8.1 mph NE13.0 kmh NE 11.5 mph18.5 kmh 30.34 in1027.4 mb - 0.00 in0.0 mm 0.00 in0.0 mm
07:30 PM 21.7°F-5.7°C 18.7°F-7.4°C 88% 9.2 mph NE14.8 kmh NE 19.6 mph31.5 kmh 30.35 in1027.8 mb - 0.00 in0.0 mm 0.00 in0.0 mm
07:40 PM 21.5°F-5.8°C 18.5°F-7.5°C 88% 8.1 mph ENE13.0 kmh ENE 13.8 mph22.2 kmh 30.35 in1027.8 mb - 0.00 in0.0 mm 0.00 in0.0 mm
07:50 PM 21.4°F-5.9°C 18.1°F-7.7°C 87% 9.2 mph ENE14.8 kmh ENE 10.4 mph16.7 kmh 30.35 in1027.8 mb - 0.00 in0.0 mm 0.00 in0.0 mm
08:00 PM 21.3°F-5.9°C 18.3°F-7.6°C 88% 8.1 mph ENE13.0 kmh ENE 11.5 mph18.5 kmh 30.36 in1028.1 mb - 0.00 in0.0 mm 0.00 in0.0 mm
08:10 PM 21.2°F-6.0°C 18.5°F-7.5°C 89% 10.4 mph ENE16.7 kmh ENE 13.8 mph22.2 kmh 30.36 in1028.1 mb - 0.00 in0.0 mm 0.00 in0.0 mm
08:20 PM 20.9°F-6.2°C 18.2°F-7.7°C 89% 6.9 mph NE11.1 kmh NE 11.5 mph18.5 kmh 30.36 in1028.1 mb - 0.00 in0.0 mm 0.00 in0.0 mm
08:30 PM 20.9°F-6.2°C 18.2°F-7.7°C 89% 9.2 mph E14.8 kmh E 15.0 mph24.1 kmh 30.36 in1028.1 mb - 0.00 in0.0 mm 0.00 in0.0 mm
08:40 PM 20.7°F-6.3°C 17.4°F-8.1°C 87% 5.8 mph ENE9.3 kmh ENE 9.2 mph14.8 kmh 30.36 in1028.1 mb - 0.00 in0.0 mm 0.00 in0.0 mm
08:50 PM 20.7°F-6.3°C 17.4°F-8.1°C 87% 8.1 mph E13.0 kmh E 12.7 mph20.4 kmh 30.37 in1028.4 mb - 0.00 in0.0 mm 0.00 in0.0 mm
09:00 PM 20.4°F-6.4°C 17.2°F-8.2°C 87% 6.9 mph NE11.1 kmh NE 12.7 mph20.4 kmh 30.37 in1028.4 mb - 0.00 in0.0 mm 0.00 in0.0 mm
09:10 PM 20.6°F-6.3°C 17.9°F-7.8°C 89% 8.1 mph E13.0 kmh E 19.6 mph31.5 kmh 30.38 in1028.8 mb - 0.00 in0.0 mm 0.00 in0.0 mm
09:20 PM 20.4°F-6.4°C 17.1°F-8.3°C 87% 6.9 mph E11.1 kmh E 9.2 mph14.8 kmh 30.37 in1028.4 mb - 0.00 in0.0 mm 0.00 in0.0 mm
09:30 PM 20.2°F-6.6°C 17.2°F-8.2°C 88% 8.1 mph E13.0 kmh E 12.7 mph20.4 kmh 30.37 in1028.4 mb - 0.00 in0.0 mm 0.00 in0.0 mm
09:40 PM 20.0°F-6.7°C 17.3°F-8.2°C 89% 8.1 mph ENE13.0 kmh ENE 18.4 mph29.6 kmh 30.38 in1028.8 mb - 0.00 in0.0 mm 0.00 in0.0 mm
09:50 PM 19.9°F-6.7°C 16.9°F-8.4°C 88% 10.4 mph E16.7 kmh E 18.4 mph29.6 kmh 30.38 in1028.8 mb - 0.00 in0.0 mm 0.00 in0.0 mm
10:00 PM 19.9°F-6.7°C 17.2°F-8.2°C 89% 8.1 mph ENE13.0 kmh ENE 11.5 mph18.5 kmh 30.38 in1028.8 mb - 0.00 in0.0 mm 0.00 in0.0 mm
10:10 PM 19.7°F-6.8°C 16.5°F-8.6°C 87% 6.9 mph NE11.1 kmh NE 13.8 mph22.2 kmh 30.38 in1028.8 mb - 0.00 in0.0 mm 0.00 in0.0 mm
10:20 PM 19.6°F-6.9°C 16.4°F-8.7°C 87% 9.2 mph ENE14.8 kmh ENE 12.7 mph20.4 kmh 30.38 in1028.8 mb - 0.00 in0.0 mm 0.00 in0.0 mm
10:30 PM 19.4°F-7.0°C 16.2°F-8.8°C 87% 5.8 mph ENE9.3 kmh ENE 11.5 mph18.5 kmh 30.38 in1028.8 mb - 0.00 in0.0 mm 0.00 in0.0 mm
10:40 PM 19.5°F-6.9°C 16.5°F-8.6°C 88% 6.9 mph ENE11.1 kmh ENE 11.5 mph18.5 kmh 30.39 in1029.1 mb - 0.00 in0.0 mm 0.00 in0.0 mm
10:50 PM 19.7°F-6.8°C 16.7°F-8.5°C 88% 6.9 mph ENE11.1 kmh ENE 11.5 mph18.5 kmh 30.39 in1029.1 mb - 0.00 in0.0 mm 0.00 in0.0 mm
11:00 PM 19.4°F-7.0°C 16.2°F-8.8°C 87% 5.8 mph E9.3 kmh E 9.2 mph14.8 kmh 30.39 in1029.1 mb - 0.00 in0.0 mm 0.00 in0.0 mm
11:10 PM 19.2°F-7.1°C 16.0°F-8.9°C 87% 8.1 mph ENE13.0 kmh ENE 18.4 mph29.6 kmh 30.39 in1029.1 mb - 0.00 in0.0 mm 0.00 in0.0 mm
11:20 PM 19.4°F-7.0°C 16.4°F-8.7°C 88% 5.8 mph NE9.3 kmh NE 11.5 mph18.5 kmh 30.39 in1029.1 mb - 0.00 in0.0 mm 0.00 in0.0 mm
11:30 PM 19.3°F-7.1°C 16.3°F-8.7°C 88% 5.8 mph ENE9.3 kmh ENE 16.1 mph25.9 kmh 30.39 in1029.1 mb - 0.00 in0.0 mm 0.00 in0.0 mm
11:40 PM 19.1°F-7.2°C 16.1°F-8.8°C 88% 8.1 mph E13.0 kmh E 18.4 mph29.6 kmh 30.39 in1029.1 mb - 0.00 in0.0 mm 0.00 in0.0 mm
11:50 PM 19.0°F-7.2°C 16.3°F-8.7°C 89% 5.8 mph E9.3 kmh E 12.7 mph20.4 kmh 30.39 in1029.1 mb - 0.00 in0.0 mm 0.00 in0.0 mm